Time;durP1;ratioP1;P1;durP2;ratioP2;P2;SDS_P1;SDS_P2;PMS_P1;PMS_P2;Temp;Humidity;BMP_temperature;BMP_pressure;BME280_temperature;BME280_humidity;BME280_pressure;Samples;Min_cycle;Max_cycle;Signal;HPM_P1;HPM_P2
2023/01/22 00:02:01;;;;;;;4.60;2.50;;;18.30;44.00;;;;;;5034842;28;20838;-79
2023/01/22 00:04:26;;;;;;;9.23;2.40;;;18.20;44.20;;;;;;5033046;28;20411;-78
2023/01/22 00:06:52;;;;;;;4.33;2.10;;;18.20;44.20;;;;;;5033254;28;20955;-79
2023/01/22 00:09:18;;;;;;;4.60;2.53;;;18.20;44.50;;;;;;5033191;28;20180;-78
2023/01/22 00:11:43;;;;;;;6.30;2.33;;;18.20;44.60;;;;;;5032988;28;20195;-79
2023/01/22 00:14:09;;;;;;;8.37;2.43;;;18.20;44.30;;;;;;5034523;28;20206;-78
2023/01/22 00:16:35;;;;;;;6.40;2.37;;;18.20;44.40;;;;;;5034691;28;20168;-79
2023/01/22 00:19:01;;;;;;;7.00;2.50;;;18.20;44.20;;;;;;5033039;28;20454;-79
2023/01/22 00:21:26;;;;;;;3.03;2.30;;;18.20;44.20;;;;;;5034741;28;20196;-79
2023/01/22 00:23:52;;;;;;;5.80;2.40;;;18.10;44.10;;;;;;5032939;28;20527;-79
2023/01/22 00:26:19;;;;;;;2.80;1.93;;;18.10;44.20;;;;;;5034449;28;20167;-79
2023/01/22 00:28:45;;;;;;;4.13;2.43;;;18.10;44.30;;;;;;5033331;28;20918;-79
2023/01/22 00:31:13;;;;;;;3.70;2.23;;;18.10;44.30;;;;;;5033442;28;20418;-79
2023/01/22 00:33:39;;;;;;;3.33;2.00;;;18.10;44.40;;;;;;5032541;28;20200;-78
2023/01/22 00:36:07;;;;;;;4.13;2.00;;;18.00;44.30;;;;;;5032835;28;20410;-79
2023/01/22 00:38:34;;;;;;;6.30;1.83;;;18.00;44.40;;;;;;5033994;28;20510;-79
2023/01/22 00:41:05;;;;;;;3.90;2.33;;;18.00;44.30;;;;;;5034068;28;20486;-79
2023/01/22 00:43:32;;;;;;;3.00;1.90;;;18.00;44.30;;;;;;5032816;28;20493;-79
2023/01/22 00:45:58;;;;;;;2.33;2.03;;;18.00;44.30;;;;;;5032527;28;20417;-80
2023/01/22 00:48:24;;;;;;;2.10;1.60;;;18.00;44.40;;;;;;5033791;28;20411;-80
2023/01/22 00:50:50;;;;;;;4.00;2.03;;;18.00;44.40;;;;;;5032340;28;20290;-80
2023/01/22 00:53:15;;;;;;;2.30;2.00;;;17.90;44.40;;;;;;5032269;28;20938;-80
2023/01/22 00:55:53;;;;;;;2.67;2.00;;;17.90;44.40;;;;;;5033675;28;20205;-80
2023/01/22 00:58:19;;;;;;;1.93;1.50;;;17.90;44.40;;;;;;5032554;28;20206;-79
2023/01/22 01:00:45;;;;;;;2.93;2.00;;;17.90;44.40;;;;;;5032628;28;20411;-79
2023/01/22 01:03:26;;;;;;;1.90;1.70;;;17.90;44.40;;;;;;5032160;28;20431;-80
2023/01/22 01:05:55;;;;;;;3.10;1.93;;;17.90;44.50;;;;;;5033663;28;20383;-80
2023/01/22 01:08:22;;;;;;;3.13;1.90;;;17.90;44.50;;;;;;5031801;28;20418;-80
2023/01/22 01:10:52;;;;;;;2.97;1.97;;;17.90;44.50;;;;;;5032615;28;20824;-80
2023/01/22 01:13:17;;;;;;;3.77;2.07;;;17.90;44.50;;;;;;5033339;28;20484;-81
2023/01/22 01:15:43;;;;;;;2.00;1.80;;;17.80;44.40;;;;;;5031968;28;20464;-79
2023/01/22 01:18:11;;;;;;;3.10;2.50;;;17.80;44.50;;;;;;5031894;28;20508;-80
2023/01/22 01:20:37;;;;;;;3.37;1.90;;;17.80;44.50;;;;;;5031857;28;20532;-79
2023/01/22 01:23:03;;;;;;;2.40;1.80;;;17.80;44.50;;;;;;5033169;28;20442;-79
2023/01/22 01:25:29;;;;;;;4.20;2.00;;;17.80;44.50;;;;;;5033331;28;20410;-79
2023/01/22 01:27:54;;;;;;;2.20;1.70;;;17.80;44.60;;;;;;5031868;28;20210;-79
2023/01/22 01:30:20;;;;;;;2.83;1.83;;;17.80;44.60;;;;;;5031879;28;20180;-79
2023/01/22 01:32:45;;;;;;;2.63;2.00;;;17.80;44.50;;;;;;5033027;28;20191;-79
2023/01/22 01:35:11;;;;;;;1.90;1.70;;;17.80;44.60;;;;;;5033193;28;20206;-80
2023/01/22 01:37:37;;;;;;;2.37;1.60;;;17.80;44.50;;;;;;5033057;28;20191;-79
2023/01/22 01:40:02;;;;;;;2.13;1.80;;;17.80;44.60;;;;;;5031737;28;20187;-79
2023/01/22 01:42:37;;;;;;;1.60;1.50;;;17.80;44.60;;;;;;5031438;28;20714;-79
2023/01/22 01:45:24;;;;;;;4.73;1.90;;;17.70;44.50;;;;;;5032993;28;20174;-79
2023/01/22 01:48:27;;;;;;;2.13;1.60;;;17.70;44.50;;;;;;5031655;28;20432;-79
2023/01/22 01:51:01;;;;;;;2.10;1.50;;;17.70;44.60;;;;;;5033200;28;20416;-78
2023/01/22 01:53:27;;;;;;;2.07;1.73;;;17.70;44.60;;;;;;5032674;28;20463;-79
2023/01/22 01:55:56;;;;;;;2.50;1.77;;;17.70;44.60;;;;;;5031444;28;20415;-79
2023/01/22 01:58:24;;;;;;;2.13;1.70;;;17.70;44.60;;;;;;5032882;28;20517;-79
2023/01/22 02:00:54;;;;;;;6.10;1.60;;;17.70;44.60;;;;;;5031210;28;20427;-79
2023/01/22 02:03:20;;;;;;;3.20;1.73;;;17.70;44.70;;;;;;5031037;28;20422;-80
2023/01/22 02:05:46;;;;;;;4.23;1.80;;;17.70;44.70;;;;;;5032284;28;20410;-79
2023/01/22 02:08:12;;;;;;;4.00;1.60;;;17.70;44.70;;;;;;5030889;28;20445;-79
2023/01/22 02:10:38;;;;;;;3.00;1.40;;;17.70;44.60;;;;;;5032323;28;20168;-80
2023/01/22 02:13:09;;;;;;;2.03;1.50;;;17.70;44.60;;;;;;5032588;28;20509;-80
2023/01/22 02:15:36;;;;;;;4.63;2.00;;;17.70;44.60;;;;;;5030820;28;20441;-79
2023/01/22 02:18:02;;;;;;;2.33;2.13;;;17.70;44.60;;;;;;5032755;28;20493;-79
2023/01/22 02:20:32;;;;;;;2.70;1.77;;;17.70;44.60;;;;;;5030753;28;20430;-79
2023/01/22 02:22:57;;;;;;;2.80;1.73;;;17.70;44.60;;;;;;5032034;28;20664;-79
2023/01/22 02:25:24;;;;;;;2.17;1.60;;;17.60;44.60;;;;;;5030714;28;20414;-80
2023/01/22 02:27:49;;;;;;;2.60;1.63;;;17.60;44.50;;;;;;5032227;28;20178;-78
2023/01/22 02:30:15;;;;;;;1.60;1.30;;;17.60;44.50;;;;;;5032056;28;20402;-79
2023/01/22 02:32:41;;;;;;;2.03;1.83;;;17.60;44.60;;;;;;5032001;28;20188;-79
2023/01/22 02:35:07;;;;;;;2.77;1.97;;;17.60;44.60;;;;;;5031169;28;20406;-79
2023/01/22 02:37:32;;;;;;;3.17;1.43;;;17.60;44.60;;;;;;5032048;28;20202;-79
2023/01/22 02:39:58;;;;;;;1.67;1.47;;;17.60;45.20;;;;;;5031957;28;20403;-79
2023/01/22 02:42:25;;;;;;;2.03;1.93;;;17.60;44.60;;;;;;5030553;28;20191;-79
2023/01/22 02:44:51;;;;;;;1.40;1.30;;;17.60;44.60;;;;;;5031938;28;20694;-79
2023/01/22 02:47:17;;;;;;;1.93;1.60;;;17.60;44.60;;;;;;5032954;28;20480;-79
2023/01/22 02:49:43;;;;;;;1.80;1.40;;;17.60;44.60;;;;;;5032046;28;20403;-78
2023/01/22 02:52:08;;;;;;;1.80;1.37;;;17.60;44.60;;;;;;5032034;28;20202;-79
2023/01/22 02:54:34;;;;;;;1.80;1.40;;;17.60;44.60;;;;;;5033526;28;20168;-79
2023/01/22 02:57:00;;;;;;;1.60;1.50;;;17.60;44.70;;;;;;5035811;28;20600;-80
2023/01/22 02:59:25;;;;;;;2.03;1.63;;;17.60;44.70;;;;;;5035708;28;20175;-79
2023/01/22 03:01:51;;;;;;;2.40;1.80;;;17.60;44.70;;;;;;5035730;28;20728;-79
2023/01/22 03:04:16;;;;;;;1.87;1.33;;;17.50;44.60;;;;;;5035721;28;20164;-79
2023/01/22 03:06:44;;;;;;;2.03;1.47;;;17.50;44.70;;;;;;5034335;28;20178;-79
2023/01/22 03:09:12;;;;;;;1.73;1.23;;;17.50;44.60;;;;;;5034396;28;20179;-79
2023/01/22 03:11:40;;;;;;;1.80;1.50;;;17.50;44.70;;;;;;5035483;28;20411;-78
2023/01/22 03:22:20;;;;;;;1.40;1.30;;;17.50;44.80;;;;;;5035327;28;20512;-79
2023/01/22 03:24:49;;;;;;;2.60;1.40;;;17.50;44.90;;;;;;5035344;28;20410;-78
2023/01/22 03:27:19;;;;;;;2.60;1.40;;;17.40;44.80;;;;;;5033946;28;20413;-78
2023/01/22 03:29:45;;;;;;;5.17;1.50;;;17.50;45.50;;;;;;5035048;28;20398;-78
2023/01/22 03:32:12;;;;;;;2.43;1.77;;;17.40;45.10;;;;;;5034933;28;20897;-79
2023/01/22 03:34:38;;;;;;;3.20;1.80;;;17.40;45.20;;;;;;5035139;28;20464;-79
2023/01/22 03:37:05;;;;;;;4.70;1.63;;;17.50;45.20;;;;;;5034879;28;20776;-79
2023/01/22 03:39:31;;;;;;;2.47;1.37;;;17.50;45.20;;;;;;5034990;28;20804;-79
2023/01/22 03:41:57;;;;;;;1.60;1.20;;;17.50;45.30;;;;;;5033366;28;20783;-79
2023/01/22 03:44:22;;;;;;;1.93;1.27;;;17.50;45.30;;;;;;5033491;28;20403;-79
2023/01/22 03:46:48;;;;;;;2.40;1.50;;;17.50;45.30;;;;;;5034781;28;20628;-79
2023/01/22 03:49:14;;;;;;;2.17;1.57;;;17.50;45.40;;;;;;5033442;28;20263;-79
2023/01/22 03:51:40;;;;;;;1.47;1.13;;;17.40;45.30;;;;;;5033432;28;20229;-79
2023/01/22 03:54:06;;;;;;;5.00;1.80;;;17.40;45.40;;;;;;5034697;28;20187;-79
2023/01/22 03:56:32;;;;;;;1.60;1.37;;;17.40;45.30;;;;;;5034641;28;20421;-79
2023/01/22 03:58:58;;;;;;;1.63;1.20;;;17.40;45.40;;;;;;5034546;28;20203;-79
2023/01/22 04:01:25;;;;;;;3.30;1.27;;;17.40;45.40;;;;;;5034489;28;20481;-78
2023/01/22 04:03:52;;;;;;;1.60;1.20;;;17.40;45.50;;;;;;5034354;28;20167;-79
2023/01/22 04:06:19;;;;;;;1.80;1.47;;;17.40;45.50;;;;;;5034264;28;20441;-78
2023/01/22 04:08:48;;;;;;;2.57;1.33;;;17.40;45.50;;;;;;5034482;28;20410;-78
2023/01/22 04:11:14;;;;;;;2.17;1.17;;;17.40;45.50;;;;;;5034658;28;20924;-77
2023/01/22 04:13:42;;;;;;;2.23;1.30;;;17.40;45.60;;;;;;5034550;28;20422;-79
2023/01/22 04:16:08;;;;;;;1.93;1.73;;;17.40;45.70;;;;;;5034647;28;20438;-79
2023/01/22 04:18:34;;;;;;;1.57;1.20;;;17.40;45.70;;;;;;5033208;28;21021;-79
2023/01/22 04:21:00;;;;;;;1.40;1.20;;;17.40;45.70;;;;;;5033319;28;20522;-79
2023/01/22 04:23:26;;;;;;;1.83;1.53;;;17.40;45.90;;;;;;5034189;28;20207;-80
2023/01/22 04:25:52;;;;;;;1.73;1.50;;;17.40;45.90;;;;;;5034782;28;20410;-79
2023/01/22 04:28:18;;;;;;;2.10;1.30;;;17.40;46.10;;;;;;5033620;28;20214;-79
2023/01/22 04:30:45;;;;;;;1.83;1.30;;;17.40;46.10;;;;;;5034917;28;20893;-76
2023/01/22 04:33:12;;;;;;;1.70;1.30;;;17.40;46.00;;;;;;5034766;28;20457;-76
2023/01/22 04:35:38;;;;;;;1.70;1.33;;;17.40;46.20;;;;;;5033804;28;21047;-76
2023/01/22 04:38:06;;;;;;;1.50;1.30;;;17.40;46.00;;;;;;5034773;28;20974;-77
2023/01/22 04:40:32;;;;;;;2.27;1.40;;;17.40;46.00;;;;;;5034154;28;20403;-75
2023/01/22 04:43:05;;;;;;;2.83;1.50;;;17.40;46.10;;;;;;5034531;28;20415;-75
2023/01/22 04:45:31;;;;;;;2.00;1.40;;;17.40;46.10;;;;;;5034428;28;20403;-76
2023/01/22 04:47:57;;;;;;;1.60;1.30;;;17.40;46.00;;;;;;5034443;28;20410;-76
2023/01/22 04:50:25;;;;;;;1.27;1.17;;;17.40;46.10;;;;;;5033242;28;20411;-76
2023/01/22 04:52:52;;;;;;;1.87;1.20;;;17.40;46.10;;;;;;5033046;28;20453;-76
2023/01/22 04:55:18;;;;;;;1.57;1.20;;;17.40;46.00;;;;;;5033200;28;20460;-76
2023/01/22 04:57:43;;;;;;;5.63;1.40;;;17.40;46.00;;;;;;5034561;28;20553;-75
2023/01/22 05:00:10;;;;;;;1.30;0.90;;;17.40;46.00;;;;;;5034467;28;20421;-76
2023/01/22 05:02:36;;;;;;;1.53;1.30;;;17.40;46.00;;;;;;5034004;28;20537;-76
2023/01/22 05:05:03;;;;;;;4.60;1.10;;;17.40;46.00;;;;;;5034175;28;20402;-76
2023/01/22 05:07:29;;;;;;;1.90;1.27;;;17.40;46.00;;;;;;5032910;28;20450;-75
2023/01/22 05:09:54;;;;;;;1.23;1.13;;;17.40;46.00;;;;;;5034234;28;20523;-76
2023/01/22 05:12:20;;;;;;;1.97;1.20;;;17.40;46.00;;;;;;5033873;28;20199;-76
2023/01/22 05:14:46;;;;;;;1.40;1.20;;;17.30;46.00;;;;;;5032892;28;20198;-76
2023/01/22 05:17:11;;;;;;;1.80;1.40;;;17.30;46.00;;;;;;5033559;28;20172;-76
2023/01/22 05:19:37;;;;;;;1.33;1.07;;;17.30;46.00;;;;;;5032670;28;20168;-76
2023/01/22 05:22:03;;;;;;;2.83;1.20;;;17.30;45.90;;;;;;5033974;28;20199;-76
2023/01/22 05:24:28;;;;;;;1.90;1.03;;;17.30;46.00;;;;;;5032616;28;20175;-77
2023/01/22 05:26:54;;;;;;;1.50;1.20;;;17.30;45.90;;;;;;5033907;28;20407;-76
2023/01/22 05:29:24;;;;;;;1.40;1.13;;;17.30;45.90;;;;;;5032742;28;20168;-76
2023/01/22 05:31:53;;;;;;;1.27;1.17;;;17.30;45.90;;;;;;5033738;28;20184;-74
2023/01/22 05:34:20;;;;;;;1.30;0.80;;;17.30;45.90;;;;;;5033639;28;20480;-75
2023/01/22 05:36:45;;;;;;;1.40;1.00;;;17.30;45.90;;;;;;5033639;28;20411;-76
2023/01/22 05:39:11;;;;;;;1.63;1.00;;;17.30;45.90;;;;;;5032030;28;20815;-76
2023/01/22 05:41:37;;;;;;;2.40;1.30;;;17.30;45.80;;;;;;5033510;28;20168;-75
2023/01/22 05:44:03;;;;;;;1.30;1.10;;;17.30;45.80;;;;;;5033478;28;20703;-75
2023/01/22 05:46:29;;;;;;;1.40;1.10;;;17.20;45.70;;;;;;5032153;28;20174;-76
2023/01/22 05:48:55;;;;;;;2.63;1.20;;;17.30;45.80;;;;;;5033651;28;20411;-77
2023/01/22 05:51:21;;;;;;;3.07;1.40;;;17.30;45.80;;;;;;5033677;28;20199;-76
2023/01/22 05:53:47;;;;;;;1.40;1.30;;;17.30;45.80;;;;;;5032165;28;20470;-77
2023/01/22 05:56:12;;;;;;;1.83;1.00;;;17.30;45.60;;;;;;5033350;28;20171;-76
2023/01/22 05:58:38;;;;;;;1.73;1.13;;;17.30;45.70;;;;;;5032011;28;20211;-76
2023/01/22 06:01:03;;;;;;;1.57;1.20;;;17.30;45.70;;;;;;5033398;28;20685;-75
2023/01/22 06:03:29;;;;;;;1.30;1.17;;;17.30;45.70;;;;;;5031928;28;20188;-75
2023/01/22 06:06:04;;;;;;;1.97;1.10;;;17.30;45.70;;;;;;5031982;28;20180;-76
2023/01/22 06:08:31;;;;;;;3.90;1.40;;;17.20;45.60;;;;;;5032127;28;20210;-75
2023/01/22 06:11:09;;;;;;;2.60;1.20;;;17.20;45.70;;;;;;5031883;28;20410;-76
2023/01/22 06:13:36;;;;;;;4.17;1.50;;;17.30;45.70;;;;;;5033064;28;20598;-75
2023/01/22 06:16:02;;;;;;;3.07;1.30;;;17.30;45.70;;;;;;5033218;28;20410;-75
2023/01/22 06:18:28;;;;;;;4.83;1.50;;;17.30;45.60;;;;;;5033193;28;20442;-75
2023/01/22 06:21:06;;;;;;;1.97;1.40;;;17.30;45.50;;;;;;5032433;28;20887;-76
2023/01/22 06:23:32;;;;;;;5.57;1.30;;;17.30;45.50;;;;;;5031653;28;20453;-74
2023/01/22 06:26:00;;;;;;;6.50;1.97;;;17.30;45.50;;;;;;5033119;28;20455;-74
2023/01/22 06:28:26;;;;;;;1.67;1.30;;;17.30;45.40;;;;;;5032979;28;20402;-75
2023/01/22 06:30:56;;;;;;;7.00;1.30;;;17.30;45.40;;;;;;5035656;28;20407;-75
2023/01/22 06:33:22;;;;;;;5.43;1.50;;;17.30;45.40;;;;;;5036967;28;20430;-75
2023/01/22 06:35:55;;;;;;;6.73;1.53;;;17.30;45.40;;;;;;5035606;28;20556;-73
2023/01/22 06:38:22;;;;;;;3.00;1.30;;;17.30;45.30;;;;;;5037002;28;20442;-75
2023/01/22 06:40:50;;;;;;;1.60;1.23;;;17.30;45.30;;;;;;5036992;28;20438;-76
2023/01/22 06:43:16;;;;;;;2.40;1.50;;;17.30;45.20;;;;;;5035464;28;20512;-80
2023/01/22 06:45:42;;;;;;;3.53;2.00;;;17.30;45.30;;;;;;5035510;28;20434;-80
2023/01/22 06:48:07;;;;;;;2.90;1.60;;;17.30;45.30;;;;;;5035438;28;20207;-79
2023/01/22 06:50:33;;;;;;;5.90;1.40;;;17.30;45.30;;;;;;5035343;28;20182;-79
2023/01/22 06:52:59;;;;;;;4.03;1.50;;;17.30;45.30;;;;;;5035059;28;20289;-79
2023/01/22 06:55:25;;;;;;;2.77;1.53;;;17.30;45.30;;;;;;5036747;28;20180;-79
2023/01/22 06:57:54;;;;;;;6.40;1.40;;;17.30;45.20;;;;;;5035649;28;20453;-79
2023/01/22 07:00:20;;;;;;;2.33;1.40;;;17.30;45.20;;;;;;5036495;28;20163;-79
2023/01/22 07:02:45;;;;;;;1.20;0.90;;;17.20;45.10;;;;;;5034614;28;20842;-79
2023/01/22 07:05:11;;;;;;;1.80;1.70;;;17.20;45.10;;;;;;5034911;28;20410;-79
2023/01/22 07:07:36;;;;;;;2.27;1.20;;;17.20;45.70;;;;;;5035110;28;20274;-79
2023/01/22 07:10:03;;;;;;;2.03;1.10;;;17.20;45.10;;;;;;5036690;28;20479;-79
2023/01/22 07:12:28;;;;;;;3.60;1.30;;;17.20;45.10;;;;;;5035628;28;20200;-80
2023/01/22 07:14:54;;;;;;;3.13;1.37;;;17.20;45.10;;;;;;5035787;28;20437;-79
2023/01/22 07:17:19;;;;;;;5.67;1.40;;;17.20;45.10;;;;;;5037011;28;20199;-78
2023/01/22 07:19:45;;;;;;;1.50;1.13;;;17.20;45.00;;;;;;5036381;28;20168;-75
2023/01/22 07:22:11;;;;;;;2.73;1.63;;;17.20;45.10;;;;;;5036120;28;20289;-78
2023/01/22 07:24:36;;;;;;;1.43;1.10;;;17.20;45.00;;;;;;5036117;28;20181;-78
2023/01/22 07:27:02;;;;;;;3.83;1.00;;;17.20;45.00;;;;;;5035953;28;20172;-78
2023/01/22 07:29:27;;;;;;;2.33;1.10;;;17.20;45.10;;;;;;5035984;28;20583;-78
2023/01/22 07:31:53;;;;;;;2.40;1.37;;;17.20;45.10;;;;;;5034677;28;20204;-78
2023/01/22 07:34:19;;;;;;;2.10;1.30;;;17.20;45.10;;;;;;5035971;28;20168;-78
2023/01/22 07:36:47;;;;;;;2.63;1.50;;;17.20;45.10;;;;;;5035992;28;20172;-78
2023/01/22 07:39:13;;;;;;;6.30;1.63;;;17.20;45.00;;;;;;5035975;28;20270;-78
2023/01/22 07:41:39;;;;;;;1.50;1.17;;;17.20;45.00;;;;;;5035314;28;20457;-78
2023/01/22 07:44:06;;;;;;;1.80;1.50;;;17.20;45.00;;;;;;5035969;28;20214;-78
2023/01/22 07:46:33;;;;;;;1.87;1.60;;;17.20;45.00;;;;;;5036096;28;20254;-78
2023/01/22 07:48:59;;;;;;;3.30;1.53;;;17.20;44.90;;;;;;5034393;28;20823;-77
2023/01/22 07:51:25;;;;;;;1.67;1.30;;;17.20;45.00;;;;;;5034133;28;20568;-77
2023/01/22 07:53:58;;;;;;;2.93;1.30;;;17.10;44.90;;;;;;5035691;28;20171;-77
2023/01/22 07:56:23;;;;;;;3.00;1.60;;;17.10;44.90;;;;;;5035874;28;20515;-78
2023/01/22 07:58:49;;;;;;;4.60;1.47;;;17.20;44.90;;;;;;5034102;28;20447;-77
2023/01/22 08:01:15;;;;;;;1.83;1.47;;;17.10;44.80;;;;;;5034475;28;20229;-77
2023/01/22 08:03:41;;;;;;;2.00;1.53;;;17.20;44.90;;;;;;5034231;28;20631;-77
2023/01/22 08:06:16;;;;;;;5.63;3.20;;;17.10;44.80;;;;;;5035570;28;20907;-78
2023/01/22 08:08:41;;;;;;;14.30;3.60;;;17.10;42.60;;;;;;5035824;28;20160;-78
2023/01/22 08:11:10;;;;;;;5.83;3.30;;;17.00;40.50;;;;;;5034685;28;20452;-85
2023/01/22 08:13:48;;;;;;;6.10;3.83;;;16.80;41.10;;;;;;5035393;28;20191;-82
2023/01/22 08:16:28;;;;;;;3.60;2.93;;;16.70;40.90;;;;;;5034440;28;20418;-80
2023/01/22 08:27:00;;;;;;;4.33;2.80;;;16.60;42.20;;;;;;4939669;29;20422;-81
2023/01/22 08:29:54;;;;;;;3.50;2.50;;;16.60;42.80;;;;;;4955830;29;20896;-81
2023/01/22 08:32:23;;;;;;;6.27;2.40;;;16.60;43.20;;;;;;4939685;29;20783;-79
2023/01/22 08:34:50;;;;;;;3.50;2.73;;;16.70;43.40;;;;;;4955542;29;20426;-78
2023/01/22 08:37:24;;;;;;;2.77;2.57;;;16.70;44.00;;;;;;4985214;28;20415;-78
2023/01/22 08:39:53;;;;;;;5.33;2.47;;;16.80;43.60;;;;;;5034394;28;20418;-78
2023/01/22 08:42:18;;;;;;;3.03;2.13;;;16.80;43.70;;;;;;5033614;28;20434;-78
2023/01/22 08:44:44;;;;;;;5.30;2.60;;;16.90;43.80;;;;;;5034042;28;20414;-79
2023/01/22 08:47:10;;;;;;;2.80;1.70;;;16.90;43.80;;;;;;5034213;28;20263;-79
2023/01/22 08:49:36;;;;;;;2.53;2.20;;;17.00;43.90;;;;;;5035119;28;20189;-79
2023/01/22 08:52:01;;;;;;;3.30;2.27;;;17.00;43.90;;;;;;5032850;28;20187;-78
2023/01/22 08:54:27;;;;;;;3.20;1.90;;;17.00;43.90;;;;;;5033704;28;20580;-79
2023/01/22 08:56:53;;;;;;;3.27;2.80;;;17.10;44.00;;;;;;5034988;28;20254;-80
2023/01/22 08:59:25;;;;;;;10.90;3.83;;;17.00;42.70;;;;;;5033123;28;20196;-81
2023/01/22 09:01:51;;;;;;;3.30;2.60;;;17.00;41.60;;;;;;5033410;28;20477;-80
2023/01/22 09:04:18;;;;;;;4.43;2.50;;;17.00;42.90;;;;;;5033511;28;20417;-81
2023/01/22 09:06:44;;;;;;;5.40;2.57;;;16.90;42.60;;;;;;5033184;28;20179;-80
2023/01/22 09:09:11;;;;;;;3.33;2.23;;;16.90;42.60;;;;;;5033215;28;20497;-81
2023/01/22 09:11:40;;;;;;;3.10;2.13;;;16.90;42.80;;;;;;5032972;28;20918;-81
2023/01/22 09:17:33;;;;;;;3.37;2.40;;;17.00;43.20;;;;;;5019028;28;20446;-83
2023/01/22 09:19:59;;;;;;;4.87;2.90;;;16.90;43.20;;;;;;5033445;28;20580;-78
2023/01/22 09:22:25;;;;;;;4.67;3.27;;;16.90;43.40;;;;;;5033173;28;20222;-79
2023/01/22 09:24:58;;;;;;;3.63;2.90;;;16.90;41.50;;;;;;5034024;28;20163;-80
2023/01/22 09:27:47;;;;;;;7.23;2.53;;;16.90;42.30;;;;;;5032969;28;20172;-80
2023/01/22 09:30:16;;;;;;;4.10;3.27;;;16.90;42.70;;;;;;4996478;28;20417;-81
2023/01/22 09:32:56;;;;;;;3.70;2.97;;;16.90;42.60;;;;;;5032581;28;20997;-80
2023/01/22 09:35:30;;;;;;;3.00;2.70;;;16.90;42.60;;;;;;5032789;28;20789;-80
2023/01/22 09:38:48;;;;;;;3.17;2.47;;;16.90;42.60;;;;;;5032647;28;20469;-81
2023/01/22 09:41:01;;;;;;;3.77;2.17;;;17.00;42.70;;;;;;5028251;28;20811;-80
2023/01/22 09:43:53;;;;;;;3.63;2.70;;;17.00;42.70;;;;;;5032397;28;20426;-81
2023/01/22 09:46:45;;;;;;;2.90;2.30;;;17.10;42.80;;;;;;5032481;28;20407;-81
2023/01/22 09:50:10;;;;;;;3.40;2.53;;;17.20;42.80;;;;;;5033803;28;20422;-81
2023/01/22 09:52:47;;;;;;;6.70;2.47;;;17.20;42.80;;;;;;5002689;28;20797;-80
2023/01/22 09:55:16;;;;;;;6.53;2.13;;;17.20;42.80;;;;;;5032802;28;20542;-80
2023/01/22 09:57:54;;;;;;;2.77;2.20;;;17.20;42.80;;;;;;5032742;28;20458;-81
2023/01/22 10:00:39;;;;;;;2.80;2.50;;;17.30;42.90;;;;;;5033355;28;20505;-81
2023/01/22 10:03:46;;;;;;;5.40;2.13;;;17.30;42.80;;;;;;5032123;28;20946;-82
2023/01/22 10:06:21;;;;;;;2.20;2.00;;;17.40;42.80;;;;;;5034240;28;20409;-80
2023/01/22 10:09:28;;;;;;;2.00;1.70;;;17.40;42.80;;;;;;5033964;28;20417;-80
2023/01/22 10:12:10;;;;;;;1.90;1.70;;;17.40;42.80;;;;;;5022467;28;20534;-80
2023/01/22 10:14:44;;;;;;;2.47;2.10;;;17.40;42.80;;;;;;5032379;28;20756;-79
2023/01/22 10:17:23;;;;;;;3.40;2.60;;;17.40;42.80;;;;;;5032021;28;20835;-82
2023/01/22 10:20:17;;;;;;;3.00;2.10;;;17.40;42.80;;;;;;5032650;28;20461;-81
2023/01/22 15:18:24;;;;;;;2.40;2.20;;;17.80;42.50;;;;;;5032736;22;20492;-83
2023/01/22 15:20:50;;;;;;;2.30;2.10;;;17.80;42.60;;;;;;4962939;28;20471;-83
2023/01/22 15:23:15;;;;;;;2.80;2.27;;;17.80;42.50;;;;;;4978361;28;20405;-83
2023/01/22 15:25:41;;;;;;;2.27;2.07;;;17.80;42.50;;;;;;4960700;28;20181;-83
2023/01/22 15:28:06;;;;;;;3.30;2.43;;;17.80;42.50;;;;;;4976952;28;20201;-83
2023/01/22 15:31:23;;;;;;;2.67;2.20;;;17.80;42.50;;;;;;4979906;28;20185;-82
2023/01/22 15:33:49;;;;;;;2.20;2.00;;;17.80;42.50;;;;;;4945679;28;20277;-82
2023/01/22 15:36:16;;;;;;;3.50;2.30;;;17.80;42.50;;;;;;4977907;28;20405;-83
2023/01/22 15:38:41;;;;;;;2.77;2.37;;;17.80;42.40;;;;;;4977855;28;20930;-83
2023/01/22 15:41:18;;;;;;;2.37;2.17;;;17.80;42.50;;;;;;4977827;28;20444;-83
2023/01/22 15:43:49;;;;;;;2.17;1.97;;;17.80;42.40;;;;;;4961214;28;20526;-83
2023/01/22 15:46:18;;;;;;;3.47;2.40;;;17.80;42.40;;;;;;4978002;28;20489;-83
2023/01/22 15:48:44;;;;;;;2.50;2.30;;;17.80;42.40;;;;;;4977638;28;20502;-83
2023/01/22 15:51:11;;;;;;;3.73;2.57;;;17.80;42.40;;;;;;4977464;28;20488;-82
2023/01/22 15:53:37;;;;;;;2.43;1.90;;;17.80;42.40;;;;;;4977513;28;20642;-84
2023/01/22 15:56:03;;;;;;;2.47;2.17;;;17.80;42.40;;;;;;4976273;28;20421;-84
2023/01/22 15:58:31;;;;;;;2.67;2.00;;;17.80;42.40;;;;;;4977355;28;20456;-83
2023/01/22 16:00:56;;;;;;;2.53;2.33;;;17.80;42.40;;;;;;4977251;28;20622;-83
2023/01/22 16:03:22;;;;;;;2.50;2.30;;;17.80;42.40;;;;;;4960490;28;20517;-83
2023/01/22 16:05:48;;;;;;;2.27;2.07;;;17.80;42.40;;;;;;4977675;28;20260;-84
2023/01/22 16:08:14;;;;;;;2.20;2.00;;;17.80;42.40;;;;;;4960360;28;20677;-83
2023/01/22 16:10:40;;;;;;;2.63;2.40;;;17.80;42.40;;;;;;4960659;28;20453;-83
2023/01/22 16:13:05;;;;;;;2.30;2.10;;;17.80;42.30;;;;;;4960028;28;20200;-84
2023/01/22 16:15:32;;;;;;;2.40;2.20;;;17.90;42.40;;;;;;4977006;28;20174;-84
2023/01/22 16:17:59;;;;;;;2.10;1.87;;;17.90;42.50;;;;;;4975453;28;20276;-83
2023/01/22 16:20:26;;;;;;;2.37;2.17;;;17.90;42.40;;;;;;4959828;28;20417;-83
2023/01/22 16:22:52;;;;;;;2.73;2.40;;;17.80;42.40;;;;;;4959431;28;20421;-83
2023/01/22 16:25:17;;;;;;;2.63;2.43;;;17.90;42.40;;;;;;4977359;28;20405;-83
2023/01/22 16:27:43;;;;;;;4.40;2.40;;;17.90;42.40;;;;;;4976859;28;20194;-83
2023/01/22 16:30:10;;;;;;;2.20;1.97;;;17.90;42.40;;;;;;4959791;28;20696;-84
2023/01/22 16:32:41;;;;;;;2.43;2.13;;;17.90;42.40;;;;;;4960888;28;20428;-84
2023/01/22 16:35:10;;;;;;;2.60;2.20;;;17.80;42.30;;;;;;4976122;28;20457;-83
2023/01/22 16:37:36;;;;;;;2.33;2.13;;;17.80;42.30;;;;;;4977387;28;20440;-84
2023/01/22 16:40:02;;;;;;;2.47;2.10;;;17.80;42.20;;;;;;4978297;28;20421;-82
2023/01/22 16:42:29;;;;;;;2.40;2.20;;;17.80;42.10;;;;;;4979224;28;20177;-82
2023/01/22 16:44:55;;;;;;;2.70;2.00;;;17.80;42.20;;;;;;4960311;28;20421;-83
2023/01/22 16:47:20;;;;;;;1.90;1.73;;;17.80;42.30;;;;;;4976861;28;20580;-84
2023/01/22 16:49:47;;;;;;;3.03;2.20;;;17.80;42.30;;;;;;4959479;28;20186;-83
2023/01/22 16:52:13;;;;;;;2.10;1.90;;;17.80;42.30;;;;;;4976758;28;20323;-84
2023/01/22 16:54:39;;;;;;;2.80;2.07;;;17.80;42.30;;;;;;4976227;28;20455;-85
2023/01/22 16:57:06;;;;;;;2.23;2.00;;;17.80;42.30;;;;;;4976636;28;20161;-81
2023/01/22 16:59:34;;;;;;;2.77;2.33;;;17.80;42.30;;;;;;4976487;28;20460;-82
2023/01/22 17:02:03;;;;;;;2.63;2.40;;;17.80;42.30;;;;;;4976233;28;20421;-82
2023/01/22 17:04:29;;;;;;;3.00;2.67;;;17.80;42.30;;;;;;4976253;28;20469;-83
2023/01/22 17:06:57;;;;;;;2.10;1.90;;;17.80;42.40;;;;;;4976427;28;20438;-83
2023/01/22 17:09:28;;;;;;;2.13;1.93;;;17.80;42.50;;;;;;4976462;28;20445;-83
2023/01/22 17:11:57;;;;;;;2.30;2.03;;;17.90;42.70;;;;;;4981329;28;20416;-81
2023/01/22 17:14:25;;;;;;;2.20;1.90;;;17.90;42.60;;;;;;4976905;28;20472;-83
2023/01/22 17:16:55;;;;;;;2.33;2.13;;;17.90;42.70;;;;;;4978222;28;20424;-83
2023/01/22 17:19:21;;;;;;;3.13;2.30;;;18.00;42.70;;;;;;4960298;28;20473;-83
2023/01/22 17:21:50;;;;;;;6.37;2.43;;;18.00;42.70;;;;;;4977445;28;20408;-83
2023/01/22 17:24:16;;;;;;;2.03;1.83;;;18.00;42.70;;;;;;4976363;28;20409;-82
2023/01/22 17:26:44;;;;;;;2.40;2.10;;;18.10;42.90;;;;;;4958467;28;20472;-83
2023/01/22 17:29:12;;;;;;;2.37;2.00;;;18.10;42.80;;;;;;4958611;28;20955;-82
2023/01/22 17:31:41;;;;;;;2.50;2.20;;;18.10;42.80;;;;;;4958740;28;20417;-83
2023/01/22 17:34:09;;;;;;;2.30;2.00;;;18.20;43.00;;;;;;4977733;28;20401;-82
2023/01/22 17:36:37;;;;;;;2.67;2.10;;;18.20;43.10;;;;;;4976497;28;20918;-83
2023/01/22 17:39:04;;;;;;;2.43;2.23;;;18.20;43.20;;;;;;4975412;28;20512;-83
2023/01/22 17:41:32;;;;;;;2.53;2.23;;;18.30;43.30;;;;;;4959523;28;20405;-82
2023/01/22 17:43:59;;;;;;;2.63;2.40;;;18.30;43.40;;;;;;4976928;28;20416;-82
2023/01/22 17:46:30;;;;;;;2.73;2.43;;;18.30;43.40;;;;;;4976331;28;20431;-83
2023/01/22 17:48:57;;;;;;;2.87;2.20;;;18.30;43.40;;;;;;4976031;28;20983;-83
2023/01/22 17:51:25;;;;;;;2.50;2.30;;;18.30;43.30;;;;;;4974552;28;20472;-82
2023/01/22 17:53:53;;;;;;;4.63;2.47;;;18.40;43.40;;;;;;4977471;28;20802;-81
2023/01/22 17:56:23;;;;;;;3.10;2.70;;;18.30;43.30;;;;;;4975550;28;20505;-81
2023/01/22 17:58:51;;;;;;;3.03;2.60;;;18.40;43.20;;;;;;4976656;28;20471;-80
2023/01/22 18:01:20;;;;;;;2.63;2.43;;;18.40;43.20;;;;;;4959368;28;20414;-81
2023/01/22 18:03:46;;;;;;;3.37;2.70;;;18.40;43.20;;;;;;4975306;28;20432;-81
2023/01/22 18:06:12;;;;;;;3.90;2.43;;;18.40;43.10;;;;;;4973994;28;20401;-81
2023/01/22 18:08:39;;;;;;;3.17;2.40;;;18.40;43.10;;;;;;4958088;28;20475;-81